Time;durP1;ratioP1;P1;durP2;ratioP2;P2;SDS_P1;SDS_P2;PMS_P1;PMS_P2;Temp;Humidity;BMP_temperature;BMP_pressure;BME280_temperature;BME280_humidity;BME280_pressure;Samples;Min_cycle;Max_cycle;Signal;HPM_P1;HPM_P2
2024/04/19 00:01:25;;;;;;;4.70;3.47;;;;;;;;;;5364185;26;20008;-65
2024/04/19 00:03:52;;;;;;;5.10;3.07;;;;;;;;;;5378345;26;20479;-64
2024/04/19 00:06:18;;;;;;;6.00;3.13;;;;;;;;;;5378604;26;20000;-64
2024/04/19 00:08:44;;;;;;;5.55;2.65;;;;;;;;;;5363782;26;20007;-64
2024/04/19 00:11:10;;;;;;;3.17;2.72;;;;;;;;;;5379043;26;20350;-65
2024/04/19 00:13:36;;;;;;;6.65;2.40;;;;;;;;;;5357429;26;20430;-64
2024/04/19 00:16:02;;;;;;;10.35;2.88;;;;;;;;;;5319253;26;20036;-64
2024/04/19 00:18:29;;;;;;;11.10;2.80;;;;;;;;;;5370665;26;20359;-65
2024/04/19 00:20:56;;;;;;;4.22;2.92;;;;;;;;;;5378176;26;20015;-63
2024/04/19 00:23:22;;;;;;;6.35;3.05;;;;;;;;;;5357200;26;20534;-65
2024/04/19 00:25:49;;;;;;;4.55;2.83;;;;;;;;;;5359758;26;20012;-64
2024/04/19 00:28:16;;;;;;;8.35;3.45;;;;;;;;;;5327000;26;20454;-64
2024/04/19 00:30:42;;;;;;;5.07;3.53;;;;;;;;;;5355291;26;20423;-64
2024/04/19 00:33:08;;;;;;;5.05;2.67;;;;;;;;;;5378145;26;20238;-65
2024/04/19 00:35:34;;;;;;;6.05;3.90;;;;;;;;;;5376917;26;20004;-63
2024/04/19 00:38:00;;;;;;;6.00;3.35;;;;;;;;;;5355510;26;19997;-65
2024/04/19 00:40:33;;;;;;;6.65;3.45;;;;;;;;;;5317804;26;20471;-64
2024/04/19 00:42:59;;;;;;;3.80;3.17;;;;;;;;;;5379339;26;20014;-64
2024/04/19 00:45:28;;;;;;;5.32;3.15;;;;;;;;;;5359635;26;20447;-64
2024/04/19 00:47:54;;;;;;;5.93;3.55;;;;;;;;;;5345317;26;20001;-65
2024/04/19 00:50:21;;;;;;;6.40;3.83;;;;;;;;;;5349398;26;20338;-64
2024/04/19 00:52:47;;;;;;;6.60;3.80;;;;;;;;;;5368794;26;20000;-65
2024/04/19 00:55:13;;;;;;;4.95;3.70;;;;;;;;;;5353868;26;20003;-64
2024/04/19 00:57:40;;;;;;;6.90;3.38;;;;;;;;;;5379987;26;19997;-65
2024/04/19 01:00:07;;;;;;;4.37;3.03;;;;;;;;;;5358549;26;20020;-65
2024/04/19 01:02:34;;;;;;;10.23;3.38;;;;;;;;;;5354586;26;20004;-64
2024/04/19 01:05:18;;;;;;;6.55;3.78;;;;;;;;;;5349368;26;20366;-64
2024/04/19 01:07:44;;;;;;;5.95;3.90;;;;;;;;;;5365463;26;20019;-64
2024/04/19 01:10:10;;;;;;;5.10;3.25;;;;;;;;;;5344298;26;19993;-65
2024/04/19 01:12:36;;;;;;;4.63;3.43;;;;;;;;;;5363732;26;20000;-65
2024/04/19 01:15:02;;;;;;;9.07;3.33;;;;;;;;;;5379410;26;19998;-64
2024/04/19 01:17:29;;;;;;;6.80;4.38;;;;;;;;;;5379477;26;20003;-64
2024/04/19 01:19:55;;;;;;;7.10;4.77;;;;;;;;;;5378813;26;19996;-64
2024/04/19 01:22:36;;;;;;;9.90;4.57;;;;;;;;;;5352388;26;20453;-64
2024/04/19 01:25:04;;;;;;;6.45;4.05;;;;;;;;;;5355035;26;20078;-63
2024/04/19 01:27:31;;;;;;;7.57;3.85;;;;;;;;;;5376932;26;20007;-65
2024/04/19 01:29:57;;;;;;;6.30;3.50;;;;;;;;;;5347606;26;20015;-65
2024/04/19 01:32:23;;;;;;;7.25;4.20;;;;;;;;;;5321360;26;20008;-64
2024/04/19 01:34:50;;;;;;;6.32;4.05;;;;;;;;;;5347794;26;19993;-63
2024/04/19 01:37:16;;;;;;;5.40;4.00;;;;;;;;;;5368548;26;20118;-64
2024/04/19 01:39:42;;;;;;;6.00;3.60;;;;;;;;;;5345910;26;20099;-63
2024/04/19 01:42:09;;;;;;;6.40;4.38;;;;;;;;;;5358866;26;20028;-65
2024/04/19 01:44:35;;;;;;;7.50;5.10;;;;;;;;;;5381978;26;19996;-65
2024/04/19 01:47:02;;;;;;;9.37;4.37;;;;;;;;;;5374701;26;20069;-64
2024/04/19 01:49:28;;;;;;;8.70;4.83;;;;;;;;;;5376872;26;20549;-64
2024/04/19 01:51:54;;;;;;;6.07;4.45;;;;;;;;;;5374235;26;20036;-64
2024/04/19 01:54:20;;;;;;;9.60;4.60;;;;;;;;;;5352052;26;19996;-65
2024/04/19 01:56:47;;;;;;;6.30;3.70;;;;;;;;;;5331737;26;20012;-65
2024/04/19 01:59:13;;;;;;;5.82;4.40;;;;;;;;;;5318693;26;20063;-65
2024/04/19 02:01:39;;;;;;;4.90;3.45;;;;;;;;;;5367774;26;20073;-64
2024/04/19 02:04:05;;;;;;;8.13;4.20;;;;;;;;;;5357638;26;20484;-65
2024/04/19 02:06:31;;;;;;;5.32;3.88;;;;;;;;;;5357285;26;19997;-65
2024/04/19 02:09:01;;;;;;;7.53;4.88;;;;;;;;;;5360123;26;20015;-64
2024/04/19 02:11:27;;;;;;;8.15;5.55;;;;;;;;;;5347151;26;20468;-65
2024/04/19 02:13:53;;;;;;;5.32;3.95;;;;;;;;;;5316811;26;20024;-65
2024/04/19 02:16:19;;;;;;;4.28;3.80;;;;;;;;;;5364236;26;20000;-65
2024/04/19 02:18:45;;;;;;;7.53;5.32;;;;;;;;;;5378904;26;20028;-65
2024/04/19 02:21:11;;;;;;;7.22;4.85;;;;;;;;;;5381218;26;20046;-65
2024/04/19 02:23:37;;;;;;;6.93;4.75;;;;;;;;;;5350933;26;20472;-65
2024/04/19 02:26:04;;;;;;;7.72;4.93;;;;;;;;;;5346652;26;20331;-64
2024/04/19 02:31:15;;;;;;;7.40;5.20;;;;;;;;;;5363704;26;20081;-64
2024/04/19 02:33:42;;;;;;;5.55;4.63;;;;;;;;;;5327261;26;20084;-65
2024/04/19 02:36:09;;;;;;;9.35;4.97;;;;;;;;;;5351876;26;20001;-64
2024/04/19 02:38:37;;;;;;;8.90;5.18;;;;;;;;;;5360428;26;20102;-64
2024/04/19 02:41:04;;;;;;;5.05;4.32;;;;;;;;;;5346511;26;20003;-64
2024/04/19 02:43:31;;;;;;;7.25;4.95;;;;;;;;;;5379053;26;20475;-64
2024/04/19 02:46:03;;;;;;;9.25;4.90;;;;;;;;;;5378641;26;20000;-64
2024/04/19 02:48:30;;;;;;;9.85;5.85;;;;;;;;;;5352404;26;20352;-65
2024/04/19 02:50:56;;;;;;;5.50;4.68;;;;;;;;;;5355585;26;20004;-64
2024/04/19 02:53:23;;;;;;;7.95;4.63;;;;;;;;;;5359601;26;20011;-64
2024/04/19 02:55:50;;;;;;;7.15;5.28;;;;;;;;;;5365238;26;20383;-64
2024/04/19 02:58:17;;;;;;;6.88;4.65;;;;;;;;;;5316118;26;19997;-65
2024/04/19 03:00:43;;;;;;;5.53;4.03;;;;;;;;;;5348845;26;20373;-64
2024/04/19 03:03:09;;;;;;;7.88;4.88;;;;;;;;;;5363179;26;20077;-65
2024/04/19 03:05:36;;;;;;;8.80;5.03;;;;;;;;;;5381476;26;20004;-64
2024/04/19 03:08:02;;;;;;;7.82;4.22;;;;;;;;;;5380693;26;20015;-65
2024/04/19 03:10:28;;;;;;;5.93;4.30;;;;;;;;;;5380732;26;20024;-64
2024/04/19 03:12:54;;;;;;;5.38;4.60;;;;;;;;;;5337166;26;20012;-64
2024/04/19 03:15:20;;;;;;;4.82;4.32;;;;;;;;;;5317794;26;20007;-65
2024/04/19 03:17:47;;;;;;;9.57;4.82;;;;;;;;;;5353700;26;20069;-64
2024/04/19 03:20:13;;;;;;;7.20;4.10;;;;;;;;;;5359329;26;20359;-64
2024/04/19 03:22:39;;;;;;;10.40;4.65;;;;;;;;;;5346208;26;19993;-64
2024/04/19 03:25:05;;;;;;;6.72;4.65;;;;;;;;;;5348434;26;20007;-65
2024/04/19 03:27:31;;;;;;;7.50;4.38;;;;;;;;;;5381348;26;20007;-65
2024/04/19 03:29:58;;;;;;;7.45;4.50;;;;;;;;;;5350365;26;19997;-63
2024/04/19 03:32:24;;;;;;;8.27;4.73;;;;;;;;;;5349284;26;20011;-64
2024/04/19 03:34:51;;;;;;;6.97;4.93;;;;;;;;;;5346312;26;20276;-64
2024/04/19 03:37:17;;;;;;;6.22;4.82;;;;;;;;;;5346105;26;19997;-64
2024/04/19 03:39:43;;;;;;;8.90;4.93;;;;;;;;;;5345626;26;20005;-64
2024/04/19 03:42:14;;;;;;;6.95;4.78;;;;;;;;;;5345547;26;20025;-64
2024/04/19 03:47:28;;;;;;;7.43;5.00;;;;;;;;;;5365947;26;19997;-64
2024/04/19 03:49:54;;;;;;;6.25;4.90;;;;;;;;;;5323678;26;20012;-64
2024/04/19 03:52:20;;;;;;;6.38;4.85;;;;;;;;;;5349322;26;19993;-64
2024/04/19 03:54:46;;;;;;;7.70;4.53;;;;;;;;;;5380703;26;19997;-63
2024/04/19 03:57:13;;;;;;;6.43;4.68;;;;;;;;;;5380625;26;19996;-56
2024/04/19 03:59:39;;;;;;;6.70;4.80;;;;;;;;;;5343753;26;20000;-63
2024/04/19 04:02:14;;;;;;;8.65;4.05;;;;;;;;;;5380035;26;20476;-64
2024/04/19 04:04:55;;;;;;;4.88;4.07;;;;;;;;;;5380595;26;20004;-64
2024/04/19 04:07:22;;;;;;;5.43;4.15;;;;;;;;;;5349728;26;20095;-63
2024/04/19 04:09:48;;;;;;;4.83;3.50;;;;;;;;;;5380522;26;20000;-64
2024/04/19 04:12:14;;;;;;;4.70;3.50;;;;;;;;;;5380615;26;20011;-64
2024/04/19 04:14:40;;;;;;;5.45;3.92;;;;;;;;;;5349532;26;20464;-63
2024/04/19 04:17:06;;;;;;;5.90;4.25;;;;;;;;;;5380139;26;19996;-64
2024/04/19 04:19:33;;;;;;;7.50;4.18;;;;;;;;;;5380358;26;20027;-63
2024/04/19 04:21:59;;;;;;;5.30;4.10;;;;;;;;;;5380215;26;20012;-64
2024/04/19 04:24:27;;;;;;;4.88;3.63;;;;;;;;;;5380443;26;20471;-64
2024/04/19 04:26:53;;;;;;;4.70;3.70;;;;;;;;;;5379917;26;20538;-64
2024/04/19 04:29:19;;;;;;;7.30;3.95;;;;;;;;;;5379679;26;19992;-64
2024/04/19 04:31:46;;;;;;;5.00;3.35;;;;;;;;;;5349495;26;20336;-64
2024/04/19 04:34:13;;;;;;;4.28;3.20;;;;;;;;;;5379854;26;20000;-63
2024/04/19 04:36:39;;;;;;;4.10;2.90;;;;;;;;;;5349361;26;20001;-64
2024/04/19 04:39:06;;;;;;;5.80;3.63;;;;;;;;;;5380012;26;20000;-64
2024/04/19 04:41:38;;;;;;;;;;;;;;;;;;5380393;26;20011;-63
2024/04/19 04:44:07;;;;;;;7.32;3.67;;;;;;;;;;5380323;26;19929;-64
2024/04/19 04:46:33;;;;;;;5.13;3.55;;;;;;;;;;5409114;21;20000;-54
2024/04/19 04:49:00;;;;;;;4.45;3.28;;;;;;;;;;5415027;26;19991;-54
2024/04/19 04:51:26;;;;;;;4.90;3.25;;;;;;;;;;5384200;26;19992;-50
2024/04/19 04:53:52;;;;;;;4.20;3.33;;;;;;;;;;5415141;26;20032;-54
2024/04/19 04:56:18;;;;;;;5.67;2.90;;;;;;;;;;5383923;26;20041;-51
2024/04/19 04:58:45;;;;;;;4.55;3.50;;;;;;;;;;5383936;26;19999;-50
2024/04/19 05:01:11;;;;;;;3.47;2.67;;;;;;;;;;5383747;26;20415;-51
2024/04/19 05:03:37;;;;;;;5.93;2.95;;;;;;;;;;5415064;26;20002;-50
2024/04/19 05:06:03;;;;;;;4.68;3.30;;;;;;;;;;5385337;26;19992;-50
2024/04/19 05:08:30;;;;;;;4.73;2.93;;;;;;;;;;5387537;26;20323;-52
2024/04/19 05:10:56;;;;;;;4.95;3.28;;;;;;;;;;5386756;26;20003;-50
2024/04/19 05:13:22;;;;;;;6.78;3.28;;;;;;;;;;5418568;26;20455;-53
2024/04/19 05:15:49;;;;;;;5.53;3.42;;;;;;;;;;5418060;26;19992;-53
2024/04/19 05:18:18;;;;;;;4.78;3.35;;;;;;;;;;5418356;26;20045;-53
2024/04/19 05:20:46;;;;;;;7.15;3.35;;;;;;;;;;5418243;26;19999;-51
2024/04/19 05:23:12;;;;;;;4.68;3.50;;;;;;;;;;5387275;26;20060;-50
2024/04/19 05:25:39;;;;;;;11.55;2.88;;;;;;;;;;5386990;26;20010;-52
2024/04/19 05:28:05;;;;;;;5.03;3.03;;;;;;;;;;5418163;26;19995;-50
2024/04/19 05:30:32;;;;;;;4.95;3.20;;;;;;;;;;5417979;26;20006;-52
2024/04/19 05:32:58;;;;;;;3.60;2.85;;;;;;;;;;5418459;26;20003;-50
2024/04/19 05:35:26;;;;;;;7.05;3.95;;;;;;;;;;5417922;26;20003;-50
2024/04/19 05:37:55;;;;;;;3.72;3.33;;;;;;;;;;5418058;26;20000;-52
2024/04/19 05:40:22;;;;;;;6.15;3.25;;;;;;;;;;5357084;26;20028;-50
2024/04/19 05:42:50;;;;;;;3.87;2.97;;;;;;;;;;5387035;26;20042;-50
2024/04/19 05:45:16;;;;;;;6.93;2.58;;;;;;;;;;5418204;26;20289;-51
2024/04/19 05:47:42;;;;;;;9.82;2.83;;;;;;;;;;5386631;26;20014;-50
2024/04/19 05:50:08;;;;;;;6.22;2.95;;;;;;;;;;5417882;26;20192;-51
2024/04/19 05:52:35;;;;;;;7.72;3.38;;;;;;;;;;5386797;26;20411;-50
2024/04/19 05:55:01;;;;;;;4.43;3.20;;;;;;;;;;5418193;26;19995;-52
2024/04/19 05:57:27;;;;;;;4.40;2.85;;;;;;;;;;5418231;26;20007;-51
2024/04/19 05:59:54;;;;;;;5.50;2.92;;;;;;;;;;5386317;26;20360;-50
2024/04/19 06:02:21;;;;;;;5.05;3.22;;;;;;;;;;5386826;26;19995;-53
2024/04/19 06:04:47;;;;;;;4.10;3.53;;;;;;;;;;5417662;26;19999;-53
2024/04/19 06:07:13;;;;;;;10.87;3.60;;;;;;;;;;5417468;26;20004;-53
2024/04/19 06:09:39;;;;;;;4.10;2.83;;;;;;;;;;5417473;26;20004;-52
2024/04/19 06:12:06;;;;;;;10.38;2.95;;;;;;;;;;5356954;26;19992;-50
2024/04/19 06:14:32;;;;;;;4.40;3.07;;;;;;;;;;5417841;26;20000;-50
2024/04/19 06:16:58;;;;;;;4.20;2.45;;;;;;;;;;5416083;26;20000;-50
2024/04/19 06:19:24;;;;;;;5.05;3.30;;;;;;;;;;5417160;26;20010;-52
2024/04/19 06:21:50;;;;;;;4.47;3.08;;;;;;;;;;5386207;26;20064;-50
2024/04/19 06:24:17;;;;;;;4.07;3.00;;;;;;;;;;5417390;26;20003;-51
2024/04/19 06:26:43;;;;;;;4.25;2.67;;;;;;;;;;5385848;26;20333;-51
2024/04/19 06:29:09;;;;;;;5.03;3.75;;;;;;;;;;5386258;26;20086;-50
2024/04/19 06:31:35;;;;;;;3.30;2.78;;;;;;;;;;5417366;26;20011;-52
2024/04/19 06:34:01;;;;;;;6.40;2.92;;;;;;;;;;5386008;26;20000;-54
2024/04/19 06:36:28;;;;;;;5.47;3.03;;;;;;;;;;5417251;26;20002;-51
2024/04/19 06:38:54;;;;;;;6.80;2.95;;;;;;;;;;5417081;26;20129;-54
2024/04/19 06:41:20;;;;;;;5.87;2.27;;;;;;;;;;5417260;26;20007;-52
2024/04/19 06:43:46;;;;;;;4.18;2.50;;;;;;;;;;5417236;26;19995;-54
2024/04/19 06:46:13;;;;;;;4.43;2.90;;;;;;;;;;5417368;26;20007;-51
2024/04/19 06:48:40;;;;;;;5.22;2.67;;;;;;;;;;5385779;26;20492;-51
2024/04/19 06:51:06;;;;;;;4.15;2.90;;;;;;;;;;5416912;26;20072;-55
2024/04/19 06:53:32;;;;;;;3.33;2.50;;;;;;;;;;5417094;26;20491;-54
2024/04/19 06:55:58;;;;;;;3.92;3.03;;;;;;;;;;5385552;26;20028;-52
2024/04/19 06:58:24;;;;;;;5.10;3.38;;;;;;;;;;5416919;26;19996;-52
2024/04/19 07:00:51;;;;;;;5.40;2.92;;;;;;;;;;5416566;26;20024;-53
2024/04/19 07:03:18;;;;;;;6.60;2.70;;;;;;;;;;5385728;26;20068;-51
2024/04/19 07:05:45;;;;;;;4.18;2.92;;;;;;;;;;5385687;26;20032;-50
2024/04/19 07:08:12;;;;;;;4.13;2.90;;;;;;;;;;5416744;26;20368;-51
2024/04/19 07:10:41;;;;;;;5.93;2.55;;;;;;;;;;5385435;26;20003;-52
2024/04/19 07:13:07;;;;;;;4.13;2.97;;;;;;;;;;5416628;26;20011;-51
2024/04/19 07:15:33;;;;;;;6.72;2.85;;;;;;;;;;5416872;26;20039;-52
2024/04/19 07:18:01;;;;;;;9.02;3.20;;;;;;;;;;5416809;26;20328;-54
2024/04/19 07:20:27;;;;;;;4.80;3.10;;;;;;;;;;5416304;26;19999;-52
2024/04/19 07:22:54;;;;;;;4.32;2.88;;;;;;;;;;5416776;26;20468;-50
2024/04/19 07:25:20;;;;;;;7.45;3.58;;;;;;;;;;5416634;26;20459;-46
2024/04/19 07:27:46;;;;;;;3.63;2.80;;;;;;;;;;5416228;26;20475;-46
2024/04/19 07:30:15;;;;;;;8.60;3.10;;;;;;;;;;5415757;26;20007;-45
2024/04/19 07:32:41;;;;;;;4.88;3.05;;;;;;;;;;5416568;26;20451;-48
2024/04/19 07:35:07;;;;;;;5.97;3.05;;;;;;;;;;5416443;26;20023;-46
2024/04/19 07:37:33;;;;;;;4.53;2.58;;;;;;;;;;5416248;26;20007;-50
2024/04/19 07:39:59;;;;;;;4.80;3.08;;;;;;;;;;5415872;26;20349;-51
2024/04/19 07:42:28;;;;;;;3.95;2.80;;;;;;;;;;5416545;26;19996;-51
2024/04/19 07:44:55;;;;;;;5.07;2.47;;;;;;;;;;5416321;26;20006;-50
2024/04/19 07:47:21;;;;;;;6.65;2.55;;;;;;;;;;5416182;26;19996;-50
2024/04/19 07:49:47;;;;;;;7.47;2.60;;;;;;;;;;5384991;26;19996;-50
2024/04/19 07:52:13;;;;;;;9.35;2.67;;;;;;;;;;5385318;26;19999;-50
2024/04/19 07:54:42;;;;;;;3.20;2.40;;;;;;;;;;5416460;26;20007;-51
2024/04/19 07:57:08;;;;;;;4.40;2.78;;;;;;;;;;5384798;26;20010;-52
2024/04/19 07:59:34;;;;;;;5.53;2.90;;;;;;;;;;5416161;26;20003;-50
2024/04/19 08:02:00;;;;;;;3.53;2.55;;;;;;;;;;5415857;26;19995;-52
2024/04/19 08:04:27;;;;;;;5.20;2.10;;;;;;;;;;5416117;26;19991;-50
2024/04/19 08:06:53;;;;;;;2.75;2.45;;;;;;;;;;5415799;26;20076;-50
2024/04/19 08:09:19;;;;;;;4.00;2.20;;;;;;;;;;5415898;26;20326;-48
2024/04/19 08:11:45;;;;;;;8.05;2.88;;;;;;;;;;5384826;26;20018;-50
2024/04/19 08:14:12;;;;;;;8.32;2.50;;;;;;;;;;5416084;26;20500;-50
2024/04/19 08:16:38;;;;;;;4.85;2.60;;;;;;;;;;5415732;26;19995;-50
2024/04/19 08:19:04;;;;;;;6.93;2.75;;;;;;;;;;5415650;26;20011;-50
2024/04/19 08:21:30;;;;;;;3.75;2.55;;;;;;;;;;5384568;26;20000;-50
2024/04/19 08:23:57;;;;;;;4.95;2.60;;;;;;;;;;5415550;26;20392;-53
2024/04/19 08:26:23;;;;;;;8.77;2.90;;;;;;;;;;5415968;26;19999;-50
2024/04/19 08:28:49;;;;;;;3.53;1.92;;;;;;;;;;5415298;26;20674;-50
2024/04/19 08:31:15;;;;;;;2.72;2.00;;;;;;;;;;5415931;26;20006;-50
2024/04/19 08:33:41;;;;;;;6.63;3.03;;;;;;;;;;5415396;26;20335;-50
2024/04/19 08:36:08;;;;;;;7.20;3.07;;;;;;;;;;5415739;26;20000;-51
2024/04/19 08:38:34;;;;;;;5.23;2.27;;;;;;;;;;5415375;26;20000;-50
2024/04/19 08:41:03;;;;;;;6.10;3.03;;;;;;;;;;5414133;26;19999;-50
2024/04/19 08:43:31;;;;;;;11.95;3.28;;;;;;;;;;5415422;26;19995;-49
2024/04/19 08:45:57;;;;;;;8.05;2.55;;;;;;;;;;5383982;26;19991;-50
2024/04/19 08:48:24;;;;;;;6.82;3.10;;;;;;;;;;5384261;26;19995;-49
2024/04/19 08:50:50;;;;;;;2.88;2.13;;;;;;;;;;5414795;26;20006;-50
2024/04/19 08:53:18;;;;;;;3.97;2.45;;;;;;;;;;5383774;26;20008;-50
2024/04/19 08:55:45;;;;;;;7.40;3.15;;;;;;;;;;5354509;26;20459;-50
2024/04/19 08:58:12;;;;;;;7.85;2.90;;;;;;;;;;5415093;26;19995;-50
2024/04/19 09:00:38;;;;;;;6.03;3.07;;;;;;;;;;5355116;26;20000;-49
2024/04/19 09:03:05;;;;;;;4.78;3.03;;;;;;;;;;5414997;26;20032;-50
2024/04/19 09:05:31;;;;;;;;;;;;;;;;;;5355160;26;19996;-50
2024/04/19 09:07:57;;;;;;;8.70;4.53;;;;;;;;;;5383821;26;19925;-50
2024/04/19 09:10:23;;;;;;;7.30;3.67;;;;;;;;;;5383782;26;19991;-50
2024/04/19 09:12:50;;;;;;;10.15;3.80;;;;;;;;;;5414933;26;19992;-50
2024/04/19 09:15:16;;;;;;;8.25;4.22;;;;;;;;;;5383904;26;19992;-50
2024/04/19 09:17:42;;;;;;;5.17;3.23;;;;;;;;;;5383830;26;19996;-53
2024/04/19 09:20:09;;;;;;;5.93;2.40;;;;;;;;;;5354283;26;20009;-52
2024/04/19 09:22:35;;;;;;;7.82;3.13;;;;;;;;;;5414823;26;20037;-51
2024/04/19 09:25:01;;;;;;;4.88;2.33;;;;;;;;;;5383203;26;20037;-55
2024/04/19 09:27:29;;;;;;;4.90;2.63;;;;;;;;;;5414775;26;19996;-53
2024/04/19 09:29:56;;;;;;;6.38;2.40;;;;;;;;;;5383040;26;19991;-53
2024/04/19 09:32:22;;;;;;;;;;;;;;;;;;5415126;26;20010;-50
2024/04/19 09:34:51;;;;;;;4.32;2.22;;;;;;;;;;5414506;26;20317;-55
2024/04/19 09:37:18;;;;;;;12.45;2.60;;;;;;;;;;5414152;26;19995;-50
2024/04/19 09:39:44;;;;;;;6.25;2.10;;;;;;;;;;5413938;26;20007;-50
2024/04/19 09:42:10;;;;;;;3.73;2.37;;;;;;;;;;5383025;26;20002;-53
2024/04/19 09:44:40;;;;;;;3.95;2.10;;;;;;;;;;5414423;26;20448;-50
2024/04/19 09:47:06;;;;;;;2.83;2.10;;;;;;;;;;5382888;26;20072;-50
2024/04/19 09:49:33;;;;;;;5.47;2.35;;;;;;;;;;5414188;26;20471;-50
2024/04/19 09:51:59;;;;;;;2.90;1.70;;;;;;;;;;5415781;26;20005;-50
2024/04/19 09:54:33;;;;;;;4.78;2.45;;;;;;;;;;5386788;26;20068;-51
2024/04/19 09:57:00;;;;;;;6.72;2.85;;;;;;;;;;5418621;26;20011;-50
2024/04/19 09:59:26;;;;;;;;;;;;;;;;;;5418595;26;19999;-49
2024/04/19 10:01:53;;;;;;;5.88;1.90;;;;;;;;;;5418032;26;19932;-50
2024/04/19 10:04:19;;;;;;;2.95;2.10;;;;;;;;;;5386578;26;20155;-50
2024/04/19 10:06:47;;;;;;;3.95;1.77;;;;;;;;;;5417379;26;19992;-51
2024/04/19 10:09:17;;;;;;;3.72;2.28;;;;;;;;;;5385980;26;20026;-55
2024/04/19 10:11:50;;;;;;;3.42;1.35;;;;;;;;;;5386507;26;20533;-50
2024/04/19 10:14:17;;;;;;;3.80;1.80;;;;;;;;;;5416271;26;20004;-51
2024/04/19 10:16:43;;;;;;;4.85;1.95;;;;;;;;;;5403158;26;20014;-49
2024/04/19 10:19:13;;;;;;;3.93;2.10;;;;;;;;;;5351692;26;20069;-51
2024/04/19 10:21:41;;;;;;;3.88;2.05;;;;;;;;;;5404427;26;20045;-50
2024/04/19 10:24:11;;;;;;;3.47;1.80;;;;;;;;;;5361277;26;19996;-48
2024/04/19 10:26:39;;;;;;;4.95;1.60;;;;;;;;;;5361932;26;20368;-48
2024/04/19 10:29:05;;;;;;;3.30;1.65;;;;;;;;;;5404150;26;20015;-50
2024/04/19 10:31:36;;;;;;;2.55;1.83;;;;;;;;;;5368638;26;20004;-49
2024/04/19 10:34:02;;;;;;;3.28;1.50;;;;;;;;;;5399537;26;20000;-51
2024/04/19 10:36:33;;;;;;;3.90;2.15;;;;;;;;;;5358725;26;20008;-51
2024/04/19 10:38:59;;;;;;;12.65;2.40;;;;;;;;;;5385083;26;20332;-51
2024/04/19 10:41:26;;;;;;;3.28;2.20;;;;;;;;;;5414937;26;20019;-49
2024/04/19 10:43:53;;;;;;;4.18;1.80;;;;;;;;;;5412731;26;20067;-49
2024/04/19 10:46:22;;;;;;;10.30;1.98;;;;;;;;;;5411345;21;20321;-63
2024/04/19 10:48:48;;;;;;;5.07;1.98;;;;;;;;;;5414039;26;20315;-63
2024/04/19 10:51:15;;;;;;;8.33;2.40;;;;;;;;;;5413849;26;20040;-64
2024/04/19 10:53:42;;;;;;;1.70;1.50;;;;;;;;;;5404560;26;20288;-64
2024/04/19 10:56:08;;;;;;;3.88;1.90;;;;;;;;;;5412130;26;20000;-63
2024/04/19 10:58:35;;;;;;;1.90;1.23;;;;;;;;;;5378400;26;20000;-64
2024/04/19 11:01:01;;;;;;;2.70;1.60;;;;;;;;;;5351430;26;20004;-63
2024/04/19 11:03:27;;;;;;;3.22;1.75;;;;;;;;;;5374820;26;20000;-64
2024/04/19 11:05:55;;;;;;;4.20;1.85;;;;;;;;;;5329738;26;20028;-63
2024/04/19 11:08:21;;;;;;;;;;;;;;;;;;5344792;26;20400;-63
2024/04/19 11:10:47;;;;;;;1.98;1.23;;;;;;;;;;5378853;26;19953;-64
2024/04/19 11:13:14;;;;;;;2.22;1.70;;;;;;;;;;5371366;26;20017;-63
2024/04/19 11:15:43;;;;;;;1.33;1.23;;;;;;;;;;5354301;26;20032;-63
2024/04/19 11:18:10;;;;;;;3.03;1.85;;;;;;;;;;5360223;26;20019;-63
2024/04/19 11:20:36;;;;;;;4.63;1.38;;;;;;;;;;5376025;26;19992;-64
2024/04/19 11:23:03;;;;;;;1.88;1.23;;;;;;;;;;5377563;26;20004;-63
2024/04/19 11:25:31;;;;;;;3.10;1.17;;;;;;;;;;5363105;26;20027;-64
2024/04/19 11:27:57;;;;;;;0.90;0.90;;;;;;;;;;5341642;26;20082;-63
2024/04/19 11:30:23;;;;;;;0.87;0.83;;;;;;;;;;5349071;26;20012;-63
2024/04/19 11:32:52;;;;;;;3.00;1.00;;;;;;;;;;5376809;26;20334;-64
2024/04/19 11:35:19;;;;;;;4.07;1.08;;;;;;;;;;5362871;26;20037;-63
2024/04/19 11:37:48;;;;;;;1.80;1.20;;;;;;;;;;5344393;26;19996;-64
2024/04/19 11:40:21;;;;;;;2.90;1.20;;;;;;;;;;5345592;26;20000;-63
2024/04/19 11:42:50;;;;;;;2.53;1.40;;;;;;;;;;5342328;26;20004;-64
2024/04/19 11:45:17;;;;;;;3.88;1.15;;;;;;;;;;5348038;26;20354;-64
2024/04/19 11:47:44;;;;;;;3.70;0.90;;;;;;;;;;5344863;26;20081;-62
2024/04/19 11:50:10;;;;;;;4.38;1.45;;;;;;;;;;5378314;26;20476;-63
2024/04/19 11:52:36;;;;;;;1.17;1.05;;;;;;;;;;5379469;26;20467;-63
2024/04/19 11:55:03;;;;;;;2.20;1.73;;;;;;;;;;5361180;26;19997;-63
2024/04/19 11:57:29;;;;;;;7.47;1.43;;;;;;;;;;5344585;26;20262;-62
2024/04/19 11:59:55;;;;;;;1.48;0.95;;;;;;;;;;5363410;26;20329;-63
2024/04/19 12:02:21;;;;;;;0.82;0.80;;;;;;;;;;5342452;26;20001;-63
2024/04/19 12:04:47;;;;;;;2.88;1.00;;;;;;;;;;5342447;26;20015;-63
2024/04/19 12:07:14;;;;;;;2.77;0.83;;;;;;;;;;5376808;26;20012;-63
2024/04/19 12:09:40;;;;;;;2.00;1.20;;;;;;;;;;5377772;26;20011;-63
2024/04/19 12:12:09;;;;;;;0.75;0.75;;;;;;;;;;5376778;26;20415;-63
2024/04/19 12:14:36;;;;;;;2.97;1.60;;;;;;;;;;5350109;26;20009;-62
2024/04/19 12:17:08;;;;;;;3.10;1.08;;;;;;;;;;5370319;26;20475;-60
2024/04/19 12:19:38;;;;;;;1.30;1.10;;;;;;;;;;5362671;26;20651;-63
2024/04/19 12:22:05;;;;;;;4.72;1.30;;;;;;;;;;5343631;26;20461;-62
2024/04/19 12:24:34;;;;;;;2.15;1.15;;;;;;;;;;5369331;26;20008;-62
2024/04/19 12:27:04;;;;;;;1.15;0.95;;;;;;;;;;5378218;26;20134;-63
2024/04/19 12:29:30;;;;;;;2.78;1.10;;;;;;;;;;5376090;26;20000;-62
2024/04/19 12:31:59;;;;;;;4.95;1.15;;;;;;;;;;5351903;26;20009;-63
2024/04/19 12:34:25;;;;;;;3.00;0.80;;;;;;;;;;5367233;26;20010;-63
2024/04/19 12:36:51;;;;;;;0.85;0.50;;;;;;;;;;5378148;26;20007;-63
2024/04/19 12:39:18;;;;;;;2.17;0.93;;;;;;;;;;5375106;26;20012;-63
2024/04/19 12:41:44;;;;;;;1.87;0.80;;;;;;;;;;5378725;26;20028;-63
2024/04/19 12:44:10;;;;;;;1.53;0.70;;;;;;;;;;5358125;26;20519;-62
2024/04/19 12:46:38;;;;;;;0.90;0.75;;;;;;;;;;5364656;26;20015;-63
2024/04/19 12:49:06;;;;;;;2.35;0.60;;;;;;;;;;5374529;26;20077;-63
2024/04/19 12:51:34;;;;;;;0.95;0.65;;;;;;;;;;5378287;26;20301;-63
2024/04/19 12:54:01;;;;;;;2.63;1.00;;;;;;;;;;5360802;26;20463;-63
2024/04/19 12:56:27;;;;;;;3.83;1.00;;;;;;;;;;5346173;26;20001;-63
2024/04/19 12:58:54;;;;;;;2.38;0.93;;;;;;;;;;5347458;26;20077;-62
2024/04/19 13:01:20;;;;;;;2.85;0.70;;;;;;;;;;5366898;26;20004;-63
2024/04/19 13:03:46;;;;;;;3.43;1.00;;;;;;;;;;5377781;26;20024;-63
2024/04/19 13:06:12;;;;;;;1.00;0.90;;;;;;;;;;5363707;26;20380;-63
2024/04/19 13:08:39;;;;;;;0.93;0.80;;;;;;;;;;5357831;26;20005;-63
2024/04/19 13:11:08;;;;;;;;;;;;;;;;;;5352416;26;20000;-63
2024/04/19 13:13:52;;;;;;;6.57;1.05;;;;;;;;;;5353694;26;19965;-64
2024/04/19 13:16:18;;;;;;;1.48;1.00;;;;;;;;;;5331476;26;20016;-64
2024/04/19 13:18:44;;;;;;;1.80;1.05;;;;;;;;;;5354252;26;20458;-64
2024/04/19 13:21:11;;;;;;;1.88;1.10;;;;;;;;;;5358902;26;20023;-63
2024/04/19 13:23:37;;;;;;;1.02;0.93;;;;;;;;;;5349089;26;20049;-64
2024/04/19 13:26:03;;;;;;;2.72;1.48;;;;;;;;;;5364853;26;20004;-62
2024/04/19 13:28:29;;;;;;;4.13;0.88;;;;;;;;;;5382317;26;20095;-63
2024/04/19 13:30:56;;;;;;;1.67;1.20;;;;;;;;;;5350288;26;20028;-63
2024/04/19 13:33:22;;;;;;;3.03;1.13;;;;;;;;;;5382561;26;20004;-64
2024/04/19 13:35:50;;;;;;;1.33;0.93;;;;;;;;;;5372252;26;20004;-63
2024/04/19 13:38:16;;;;;;;3.05;1.80;;;;;;;;;;5371068;26;20081;-63
2024/04/19 13:40:43;;;;;;;1.15;0.90;;;;;;;;;;5342697;26;20019;-64
2024/04/19 13:43:09;;;;;;;5.75;1.08;;;;;;;;;;5358118;26;20039;-63
2024/04/19 13:45:35;;;;;;;;;;;;;;;;;;5358554;26;20015;-64
2024/04/19 13:48:02;;;;;;;0.82;0.63;;;;;;;;;;5327514;26;19938;-64
2024/04/19 13:50:29;;;;;;;2.92;0.80;;;;;;;;;;5317385;26;20401;-63
2024/04/19 13:52:55;;;;;;;3.40;0.95;;;;;;;;;;5358167;26;20127;-56
2024/04/19 13:55:21;;;;;;;1.17;0.98;;;;;;;;;;5382127;26;20078;-57
2024/04/19 13:57:48;;;;;;;1.10;1.00;;;;;;;;;;5382119;26;20032;-58
2024/04/19 14:00:14;;;;;;;1.58;1.05;;;;;;;;;;5351169;26;20465;-57
2024/04/19 14:02:40;;;;;;;5.82;0.93;;;;;;;;;;5382086;26;20035;-57
2024/04/19 14:05:07;;;;;;;1.25;0.82;;;;;;;;;;5382697;26;19996;-54
2024/04/19 14:07:34;;;;;;;0.70;0.70;;;;;;;;;;5382505;26;19992;-56
2024/04/19 14:10:01;;;;;;;1.05;0.93;;;;;;;;;;5381827;26;20000;-56
2024/04/19 14:12:27;;;;;;;2.83;0.77;;;;;;;;;;5382274;26;20441;-62
2024/04/19 14:14:53;;;;;;;0.95;0.70;;;;;;;;;;5382268;26;20032;-62
2024/04/19 14:17:19;;;;;;;0.80;0.80;;;;;;;;;;5351545;26;20042;-63
2024/04/19 14:19:49;;;;;;;1.27;0.68;;;;;;;;;;5380516;26;20336;-62
2024/04/19 14:22:16;;;;;;;1.80;1.10;;;;;;;;;;5381976;26;19996;-62
2024/04/19 14:24:42;;;;;;;;;;;;;;;;;;5351598;26;19996;-63
2024/04/19 14:27:08;;;;;;;1.00;0.60;;;;;;;;;;5382091;26;19925;-63
2024/04/19 14:29:34;;;;;;;1.05;0.70;;;;;;;;;;5380343;26;19996;-63
2024/04/19 14:32:01;;;;;;;0.70;0.60;;;;;;;;;;5381907;26;19996;-62
2024/04/19 14:34:28;;;;;;;2.65;1.05;;;;;;;;;;5382080;26;20007;-63
2024/04/19 14:36:54;;;;;;;1.67;1.17;;;;;;;;;;5381705;26;20073;-63
2024/04/19 14:39:20;;;;;;;1.75;0.70;;;;;;;;;;5349410;26;20023;-63
2024/04/19 14:41:46;;;;;;;1.25;0.77;;;;;;;;;;5381523;26;20452;-64
2024/04/19 14:44:12;;;;;;;4.22;0.73;;;;;;;;;;5381620;26;20426;-63
2024/04/19 14:46:39;;;;;;;6.50;1.10;;;;;;;;;;5350771;26;19997;-63
2024/04/19 14:49:05;;;;;;;1.23;0.70;;;;;;;;;;5381351;26;20377;-63